Time;durP1;ratioP1;P1;durP2;ratioP2;P2;SDS_P1;SDS_P2;PMS_P1;PMS_P2;Temp;Humidity;BMP_temperature;BMP_pressure;BME280_temperature;BME280_humidity;BME280_pressure;Samples;Min_cycle;Max_cycle;Signal;HPM_P1;HPM_P2
2022/06/08 00:02:03;;;;;;;24.63;19.20;;;17.40;88.10;;;;;;5050545;28;20840;-72
2022/06/08 00:04:29;;;;;;;21.45;17.80;;;17.40;88.30;;;;;;5050928;28;20041;-72
2022/06/08 00:06:55;;;;;;;23.85;20.40;;;17.40;88.50;;;;;;5049834;28;20472;-72
2022/06/08 00:09:21;;;;;;;23.88;19.50;;;17.40;88.60;;;;;;5051128;28;20127;-72
2022/06/08 00:11:46;;;;;;;22.50;17.70;;;17.40;88.60;;;;;;5051122;28;20036;-71
2022/06/08 00:14:14;;;;;;;22.63;18.50;;;17.40;88.50;;;;;;5050151;28;20130;-72
2022/06/08 00:16:41;;;;;;;23.35;18.50;;;17.40;88.50;;;;;;5050730;28;20029;-72
2022/06/08 00:19:07;;;;;;;22.73;18.58;;;17.40;88.40;;;;;;5050932;28;20049;-72
2022/06/08 00:21:34;;;;;;;21.90;18.63;;;17.40;88.30;;;;;;5045742;28;20127;-72
2022/06/08 00:24:00;;;;;;;23.60;18.75;;;17.40;88.20;;;;;;5046309;28;20534;-71
2022/06/08 00:26:27;;;;;;;22.85;18.20;;;17.30;88.20;;;;;;5049589;28;20144;-72
2022/06/08 00:28:54;;;;;;;26.77;18.00;;;17.30;88.10;;;;;;5050333;28;20370;-72
2022/06/08 00:31:20;;;;;;;23.98;18.23;;;17.30;88.20;;;;;;5050659;28;20432;-72
2022/06/08 00:33:46;;;;;;;24.40;19.10;;;17.20;88.10;;;;;;5050060;28;20166;-71
2022/06/08 00:36:14;;;;;;;24.10;18.48;;;17.20;88.10;;;;;;5050515;28;20171;-71
2022/06/08 00:38:39;;;;;;;25.80;19.63;;;17.20;88.30;;;;;;5048623;28;20034;-71
2022/06/08 00:41:36;;;;;;;24.00;18.70;;;17.20;88.70;;;;;;5048620;28;20561;-71
2022/06/08 00:44:07;;;;;;;21.85;17.85;;;17.20;89.00;;;;;;5051561;28;20028;-72
2022/06/08 00:46:32;;;;;;;;;;;17.20;88.90;;;;;;5052136;28;20021;-72
2022/06/08 00:49:05;;;;;;;26.00;18.85;;;17.20;88.80;;;;;;5051147;28;20423;-71
2022/06/08 00:51:34;;;;;;;26.38;20.50;;;17.20;89.00;;;;;;5049617;28;20033;-72
2022/06/08 00:54:03;;;;;;;26.45;21.65;;;17.20;89.60;;;;;;5049158;28;20364;-73
2022/06/08 00:56:36;;;;;;;25.33;19.50;;;17.10;90.00;;;;;;5049861;28;20057;-71
2022/06/08 00:59:05;;;;;;;27.63;20.83;;;17.20;90.10;;;;;;5049989;28;20399;-71
2022/06/08 01:01:31;;;;;;;28.48;21.30;;;17.20;90.10;;;;;;5050246;28;20092;-71
2022/06/08 01:04:17;;;;;;;24.52;20.98;;;17.20;90.40;;;;;;5049809;28;20387;-71
2022/06/08 01:06:47;;;;;;;27.83;22.13;;;17.20;90.30;;;;;;5049774;28;20033;-71
2022/06/08 01:09:21;;;;;;;26.23;20.13;;;17.20;90.70;;;;;;5048763;28;20696;-71
2022/06/08 01:11:47;;;;;;;27.45;20.85;;;17.20;90.50;;;;;;5039078;28;20016;-71
2022/06/08 01:14:18;;;;;;;29.95;22.77;;;17.30;90.50;;;;;;5049268;28;20102;-70
2022/06/08 01:16:48;;;;;;;29.10;21.08;;;17.30;90.50;;;;;;5048941;28;20013;-70
2022/06/08 01:19:14;;;;;;;26.83;19.90;;;17.30;90.50;;;;;;5049549;28;20025;-72
2022/06/08 01:21:39;;;;;;;27.55;21.60;;;17.30;90.40;;;;;;5049422;28;20017;-72
2022/06/08 01:24:08;;;;;;;28.17;21.15;;;17.30;90.60;;;;;;5049779;28;20040;-70
2022/06/08 01:26:42;;;;;;;26.35;20.70;;;17.30;90.70;;;;;;5048479;28;20033;-72
2022/06/08 01:29:31;;;;;;;26.38;21.08;;;17.30;90.70;;;;;;5049894;28;20055;-72
2022/06/08 01:32:21;;;;;;;27.92;21.40;;;17.30;90.80;;;;;;5047977;28;20368;-72
2022/06/08 01:35:17;;;;;;;28.05;21.35;;;17.40;90.80;;;;;;5049193;28;20103;-72
2022/06/08 01:37:56;;;;;;;27.98;21.65;;;17.40;90.80;;;;;;5038698;28;20040;-72
2022/06/08 01:40:34;;;;;;;23.50;19.42;;;17.40;90.70;;;;;;5048501;28;20013;-71
2022/06/08 01:43:43;;;;;;;25.38;20.83;;;17.40;90.60;;;;;;5039562;28;20131;-71
2022/06/08 01:46:25;;;;;;;26.20;19.20;;;17.40;90.60;;;;;;5010933;28;20099;-71
2022/06/08 01:49:12;;;;;;;26.13;19.02;;;17.50;90.60;;;;;;5049129;28;20055;-71
2022/06/08 01:51:56;;;;;;;26.85;20.00;;;17.50;90.70;;;;;;5049053;28;20475;-71
2022/06/08 01:54:40;;;;;;;26.73;21.85;;;17.50;90.60;;;;;;5041217;28;20033;-71
2022/06/08 01:57:36;;;;;;;27.92;19.83;;;17.50;90.60;;;;;;5044141;28;20037;-71
2022/06/08 02:00:05;;;;;;;23.38;19.25;;;17.40;90.50;;;;;;5042371;28;20021;-72
2022/06/08 02:02:31;;;;;;;25.50;19.67;;;17.40;90.60;;;;;;5047221;28;20140;-71
2022/06/08 02:05:02;;;;;;;28.65;21.10;;;17.40;90.80;;;;;;5048248;28;20151;-71
2022/06/08 02:07:53;;;;;;;27.60;19.83;;;17.50;90.90;;;;;;5048472;28;20027;-71
2022/06/08 02:10:36;;;;;;;25.98;20.23;;;17.50;90.80;;;;;;5027896;28;20101;-71
2022/06/08 02:13:28;;;;;;;26.33;20.85;;;17.50;90.70;;;;;;5047159;28;20190;-71
2022/06/08 02:16:03;;;;;;;24.27;18.77;;;17.50;90.70;;;;;;5047162;28;20845;-71
2022/06/08 02:18:39;;;;;;;28.77;21.42;;;17.50;90.80;;;;;;5047250;28;20120;-71
2022/06/08 02:21:12;;;;;;;26.88;19.92;;;17.50;90.80;;;;;;5048572;28;20025;-71
2022/06/08 02:23:49;;;;;;;24.60;19.33;;;17.50;90.80;;;;;;5043181;28;20083;-71
2022/06/08 02:26:21;;;;;;;28.92;22.63;;;17.50;90.80;;;;;;5048564;28;20120;-71
2022/06/08 02:28:50;;;;;;;23.70;19.05;;;17.50;90.80;;;;;;5047713;28;20036;-71
2022/06/08 02:31:23;;;;;;;25.35;20.73;;;17.50;90.70;;;;;;5048037;28;20025;-71
2022/06/08 02:37:02;;;;;;;30.45;20.90;;;17.50;90.80;;;;;;5048407;28;20139;-72
2022/06/08 02:39:40;;;;;;;;;;;17.40;90.80;;;;;;5044884;28;20064;-72
2022/06/08 02:42:14;;;;;;;32.38;24.30;;;17.40;90.80;;;;;;5048303;28;19916;-71
2022/06/08 02:44:44;;;;;;;27.08;20.98;;;17.30;91.00;;;;;;5048840;28;20040;-71
2022/06/08 02:47:16;;;;;;;38.65;30.38;;;17.20;91.10;;;;;;5048714;28;20029;-72
2022/06/08 02:49:42;;;;;;;29.80;24.35;;;17.20;91.40;;;;;;5044953;28;20032;-71
2022/06/08 02:52:19;;;;;;;34.42;26.02;;;17.10;91.50;;;;;;5048520;28;20021;-71
2022/06/08 02:54:48;;;;;;;31.67;24.15;;;17.10;91.60;;;;;;5048188;28;20041;-72
2022/06/08 02:57:37;;;;;;;30.92;22.23;;;17.10;91.60;;;;;;5048216;28;20131;-71
2022/06/08 03:00:16;;;;;;;33.13;24.05;;;17.10;91.60;;;;;;5045216;28;20021;-72
2022/06/08 03:02:44;;;;;;;33.20;24.75;;;17.10;91.60;;;;;;5047971;28;20024;-71
2022/06/08 03:05:34;;;;;;;35.65;25.98;;;17.10;91.60;;;;;;5044786;28;20033;-71
2022/06/08 03:08:05;;;;;;;29.98;24.88;;;17.10;91.70;;;;;;5047535;28;20041;-71
2022/06/08 03:10:35;;;;;;;33.97;24.65;;;17.10;91.60;;;;;;5049559;28;20935;-73
2022/06/08 03:13:22;;;;;;;35.55;24.98;;;17.10;91.50;;;;;;5049838;28;20039;-71
2022/06/08 03:15:53;;;;;;;34.50;26.20;;;17.00;91.50;;;;;;5046769;28;20033;-72
2022/06/08 03:18:19;;;;;;;37.67;28.50;;;17.00;91.50;;;;;;5048598;28;20028;-71
2022/06/08 03:20:45;;;;;;;33.05;26.17;;;17.00;91.50;;;;;;5052387;28;20029;-71
2022/06/08 03:23:11;;;;;;;38.80;29.25;;;17.00;91.50;;;;;;5051995;28;20479;-72
2022/06/08 03:25:37;;;;;;;42.35;29.35;;;16.90;91.60;;;;;;5050947;28;20021;-70
2022/06/08 03:28:03;;;;;;;34.88;25.75;;;16.90;91.80;;;;;;5050506;28;20028;-71
2022/06/08 03:30:29;;;;;;;38.22;29.90;;;16.80;91.80;;;;;;5051542;28;20032;-71
2022/06/08 03:32:55;;;;;;;38.65;28.05;;;16.80;91.90;;;;;;5050852;28;20554;-71
2022/06/08 03:35:21;;;;;;;36.47;27.20;;;16.80;92.00;;;;;;5051168;28;20092;-71
2022/06/08 03:37:49;;;;;;;36.17;29.13;;;16.80;92.00;;;;;;5050966;28;20387;-71
2022/06/08 03:40:16;;;;;;;32.90;26.13;;;16.80;92.10;;;;;;5050839;28;20025;-70
2022/06/08 03:42:43;;;;;;;38.13;29.50;;;16.80;92.10;;;;;;5051382;28;20024;-71
2022/06/08 03:45:09;;;;;;;40.80;29.33;;;16.80;92.10;;;;;;5050312;28;20107;-72
2022/06/08 03:47:45;;;;;;;43.97;33.58;;;16.80;92.20;;;;;;5049823;28;20033;-72
2022/06/08 03:50:14;;;;;;;39.13;28.67;;;16.80;92.30;;;;;;5047801;28;20222;-71
2022/06/08 03:52:47;;;;;;;38.33;29.08;;;16.80;92.30;;;;;;5051476;28;20135;-71
2022/06/08 03:55:15;;;;;;;36.85;28.92;;;16.80;92.30;;;;;;5051253;28;20033;-71
2022/06/08 03:57:45;;;;;;;35.83;28.40;;;16.80;92.20;;;;;;5050569;28;20467;-71
2022/06/08 04:00:13;;;;;;;34.70;23.92;;;16.90;92.20;;;;;;5050997;28;20017;-71
2022/06/08 04:02:39;;;;;;;33.97;25.00;;;16.90;92.10;;;;;;5051147;28;20112;-71
2022/06/08 04:05:05;;;;;;;38.83;28.38;;;16.90;92.10;;;;;;5050212;28;20107;-71
2022/06/08 04:07:32;;;;;;;37.97;25.52;;;16.90;92.10;;;;;;5050956;28;20047;-71
2022/06/08 04:09:59;;;;;;;29.98;21.65;;;16.90;92.20;;;;;;5050484;28;20037;-72
2022/06/08 04:12:25;;;;;;;35.83;26.23;;;16.90;92.10;;;;;;5050804;28;20028;-72
2022/06/08 04:14:52;;;;;;;37.05;28.63;;;16.90;92.10;;;;;;5051156;28;20430;-72
2022/06/08 04:17:17;;;;;;;36.17;26.35;;;16.90;92.10;;;;;;5050036;28;20029;-72
2022/06/08 04:19:44;;;;;;;32.90;25.98;;;16.90;92.10;;;;;;5034413;28;20075;-72
2022/06/08 04:22:09;;;;;;;35.95;27.02;;;16.80;92.10;;;;;;5047512;28;20032;-71
2022/06/08 04:24:36;;;;;;;34.83;27.25;;;16.80;92.10;;;;;;5050688;28;20526;-72
2022/06/08 04:27:02;;;;;;;35.35;27.10;;;16.80;92.20;;;;;;5050348;28;20032;-71
2022/06/08 04:29:28;;;;;;;32.75;26.27;;;16.80;92.10;;;;;;5050134;28;20021;-72
2022/06/08 04:31:53;;;;;;;38.38;28.98;;;16.90;92.10;;;;;;5050043;28;20021;-71
2022/06/08 04:34:19;;;;;;;31.85;24.67;;;16.90;92.10;;;;;;5048530;28;20057;-70
2022/06/08 04:36:45;;;;;;;28.05;23.35;;;16.90;92.10;;;;;;5050237;28;20059;-70
2022/06/08 04:39:13;;;;;;;33.78;27.00;;;16.90;92.10;;;;;;5049659;28;20032;-71
2022/06/08 04:41:39;;;;;;;38.58;29.45;;;17.00;92.10;;;;;;5049932;28;20017;-69
2022/06/08 04:44:05;;;;;;;32.30;24.33;;;16.90;92.00;;;;;;5050264;28;20395;-71
2022/06/08 04:46:31;;;;;;;23.38;17.95;;;16.90;91.80;;;;;;5049847;28;20479;-73
2022/06/08 04:48:57;;;;;;;36.72;28.60;;;17.00;91.70;;;;;;5049360;28;20025;-72
2022/06/08 04:51:22;;;;;;;32.65;25.35;;;16.90;91.80;;;;;;5049899;28;20029;-72
2022/06/08 04:53:50;;;;;;;28.38;22.80;;;17.00;91.90;;;;;;5049927;28;20524;-71
2022/06/08 04:56:17;;;;;;;32.33;27.40;;;17.00;92.30;;;;;;5049297;28;20106;-72
2022/06/08 04:58:43;;;;;;;35.83;29.17;;;17.10;92.00;;;;;;5049902;28;20021;-71
2022/06/08 05:01:08;;;;;;;33.30;27.42;;;17.10;92.00;;;;;;5050082;28;20043;-72
2022/06/08 05:03:34;;;;;;;30.00;24.08;;;17.10;91.90;;;;;;5049178;28;20124;-72
2022/06/08 05:06:01;;;;;;;36.22;29.80;;;17.20;91.60;;;;;;5050035;28;20467;-71
2022/06/08 05:08:27;;;;;;;30.98;24.80;;;17.20;91.60;;;;;;5049127;28;20036;-71
2022/06/08 05:10:54;;;;;;;28.08;23.90;;;17.20;91.80;;;;;;5049911;28;20025;-70
2022/06/08 05:13:21;;;;;;;31.20;26.17;;;17.20;91.90;;;;;;5049145;28;20430;-70
2022/06/08 05:15:49;;;;;;;36.30;29.70;;;17.30;91.90;;;;;;5049565;28;20021;-73
2022/06/08 05:18:18;;;;;;;30.05;26.52;;;17.30;91.90;;;;;;5048761;28;20017;-72
2022/06/08 05:20:45;;;;;;;28.27;23.13;;;17.30;91.90;;;;;;5045698;28;20357;-73
2022/06/08 05:23:22;;;;;;;26.58;20.40;;;17.50;91.90;;;;;;5049268;28;20052;-72
2022/06/08 05:25:48;;;;;;;33.25;27.67;;;17.60;91.80;;;;;;5048749;28;20032;-72
2022/06/08 05:28:13;;;;;;;28.50;23.40;;;17.60;91.50;;;;;;5048337;28;20032;-72
2022/06/08 05:30:40;;;;;;;31.33;27.55;;;17.70;91.40;;;;;;5049831;28;20092;-71
2022/06/08 05:33:07;;;;;;;32.33;28.60;;;17.70;91.50;;;;;;5050731;28;20120;-71
2022/06/08 05:35:32;;;;;;;24.67;19.48;;;17.80;91.10;;;;;;5050253;28;20072;-70
2022/06/08 05:37:58;;;;;;;30.08;25.55;;;17.80;91.00;;;;;;5050560;28;20017;-71
2022/06/08 05:40:28;;;;;;;24.77;21.13;;;17.80;91.00;;;;;;5047588;28;20024;-71
2022/06/08 05:42:54;;;;;;;24.75;21.40;;;17.90;91.30;;;;;;5046096;28;20424;-72
2022/06/08 05:45:23;;;;;;;21.10;15.63;;;17.90;90.40;;;;;;5047439;28;20032;-70
2022/06/08 05:47:49;;;;;;;18.27;14.38;;;17.90;90.40;;;;;;5048565;28;20427;-71
2022/06/08 05:50:18;;;;;;;17.63;14.60;;;17.90;90.60;;;;;;5048410;28;20033;-71
2022/06/08 05:52:45;;;;;;;14.77;12.63;;;17.90;90.60;;;;;;5029569;28;20053;-71
2022/06/08 05:55:12;;;;;;;13.30;9.20;;;17.90;90.30;;;;;;5045216;28;20041;-71
2022/06/08 05:57:38;;;;;;;12.45;9.40;;;17.90;88.30;;;;;;5049031;28;20131;-72
2022/06/08 06:00:11;;;;;;;18.52;16.52;;;17.90;88.00;;;;;;5048600;28;20021;-71
2022/06/08 06:02:37;;;;;;;18.13;13.40;;;18.00;89.40;;;;;;5047184;28;20032;-72
2022/06/08 06:05:04;;;;;;;10.68;9.10;;;18.10;89.20;;;;;;5048944;28;20025;-71
2022/06/08 06:07:30;;;;;;;11.88;8.45;;;18.10;87.00;;;;;;5049649;28;20076;-71
2022/06/08 06:09:56;;;;;;;17.40;13.30;;;18.20;86.70;;;;;;5048264;28;20040;-72
2022/06/08 06:12:21;;;;;;;19.27;16.15;;;18.20;87.80;;;;;;5048067;28;20044;-71
2022/06/08 06:14:47;;;;;;;18.10;14.07;;;18.30;89.40;;;;;;5047193;28;20029;-71
2022/06/08 06:17:13;;;;;;;15.18;12.68;;;18.40;89.50;;;;;;5048390;28;20021;-72
2022/06/08 06:19:38;;;;;;;16.85;14.63;;;18.50;90.00;;;;;;5062954;28;20055;-72
2022/06/08 06:22:04;;;;;;;14.68;11.20;;;18.50;88.80;;;;;;5046324;28;20048;-71
2022/06/08 06:24:31;;;;;;;14.95;12.25;;;18.50;87.70;;;;;;5043549;28;20025;-72
2022/06/08 06:26:57;;;;;;;15.10;12.07;;;18.50;87.10;;;;;;5048503;28;20050;-71
2022/06/08 06:29:23;;;;;;;18.08;14.80;;;18.50;86.80;;;;;;5048560;28;20025;-70
2022/06/08 06:32:01;;;;;;;18.95;16.38;;;18.50;87.10;;;;;;5047898;28;20048;-70
2022/06/08 06:34:27;;;;;;;19.85;15.48;;;18.50;89.10;;;;;;5047557;28;20060;-71
2022/06/08 06:36:53;;;;;;;15.90;9.38;;;18.60;89.20;;;;;;5047594;28;20354;-71
2022/06/08 06:39:20;;;;;;;16.52;14.57;;;18.60;87.20;;;;;;5048068;28;20021;-71
2022/06/08 06:41:47;;;;;;;16.35;12.88;;;18.60;87.10;;;;;;5047552;28;20063;-71
2022/06/08 06:44:15;;;;;;;10.27;7.90;;;18.70;86.70;;;;;;5034398;28;20141;-71
2022/06/08 06:46:40;;;;;;;11.07;9.02;;;18.70;84.50;;;;;;5047822;28;20029;-72
2022/06/08 06:49:07;;;;;;;18.52;13.00;;;18.80;84.70;;;;;;5047745;28;20074;-72
2022/06/08 06:51:34;;;;;;;8.85;6.90;;;18.80;86.60;;;;;;5046519;28;20144;-72
2022/06/08 06:54:01;;;;;;;11.52;8.65;;;18.80;82.50;;;;;;5051084;28;20052;-72
2022/06/08 06:56:27;;;;;;;15.88;12.00;;;18.70;84.10;;;;;;5051565;28;20036;-72
2022/06/08 06:58:53;;;;;;;12.95;10.95;;;18.70;86.20;;;;;;5045671;28;20034;-70
2022/06/08 07:01:19;;;;;;;10.60;7.78;;;18.70;85.50;;;;;;5045060;28;20022;-72
2022/06/08 07:03:44;;;;;;;9.00;6.40;;;18.80;84.80;;;;;;5048986;28;20035;-71
2022/06/08 07:06:10;;;;;;;8.57;5.35;;;18.80;80.30;;;;;;5067063;28;20095;-71
2022/06/08 07:08:36;;;;;;;11.50;7.13;;;18.90;81.50;;;;;;5051899;28;20021;-71
2022/06/08 07:13:47;;;;;;;11.30;9.20;;;19.10;81.20;;;;;;5052117;28;20048;-72
2022/06/08 07:16:13;;;;;;;9.30;6.68;;;19.20;83.20;;;;;;5050523;28;20033;-72
2022/06/08 07:18:39;;;;;;;10.95;7.25;;;19.20;83.20;;;;;;5047892;28;20039;-72
2022/06/08 07:21:04;;;;;;;8.07;5.53;;;19.30;81.70;;;;;;5050309;28;20032;-72
2022/06/08 07:23:30;;;;;;;12.30;8.95;;;19.40;81.80;;;;;;5051164;28;20174;-71
2022/06/08 07:25:56;;;;;;;13.48;8.23;;;19.40;84.00;;;;;;5051725;28;20039;-72
2022/06/08 07:28:22;;;;;;;7.07;4.82;;;19.40;83.60;;;;;;5051185;28;20028;-72
2022/06/08 07:30:47;;;;;;;10.98;8.43;;;19.40;79.00;;;;;;5048681;28;20447;-72
2022/06/08 07:33:13;;;;;;;10.52;7.60;;;19.40;79.90;;;;;;5050195;28;20104;-73
2022/06/08 07:35:39;;;;;;;7.78;4.15;;;19.40;81.40;;;;;;5050740;28;20503;-71
2022/06/08 07:38:05;;;;;;;11.70;7.13;;;19.40;80.50;;;;;;5039929;28;20087;-71
2022/06/08 07:40:31;;;;;;;7.97;3.70;;;19.40;81.90;;;;;;5040293;28;20029;-71
2022/06/08 07:42:57;;;;;;;6.28;3.45;;;19.40;79.10;;;;;;5038452;28;20025;-72
2022/06/08 07:45:23;;;;;;;11.82;7.57;;;19.50;77.60;;;;;;5039188;28;20032;-72
2022/06/08 07:50:38;;;;;;;6.72;4.78;;;19.60;80.10;;;;;;5027116;28;20449;-73
2022/06/08 07:53:04;;;;;;;8.95;7.28;;;19.60;80.50;;;;;;5037492;28;20029;-73
2022/06/08 07:55:30;;;;;;;8.20;5.68;;;19.70;81.70;;;;;;5034033;28;20036;-73
2022/06/08 07:57:56;;;;;;;8.32;6.90;;;19.80;80.90;;;;;;5038750;28;20071;-73
2022/06/08 08:00:22;;;;;;;11.00;5.45;;;19.70;82.00;;;;;;5039236;28;20056;-73
2022/06/08 08:02:48;;;;;;;6.93;4.57;;;19.70;82.00;;;;;;5040614;28;20048;-71
2022/06/08 08:05:15;;;;;;;7.70;3.90;;;19.70;81.00;;;;;;5039673;28;20079;-71
2022/06/08 08:07:41;;;;;;;5.72;2.97;;;19.80;79.10;;;;;;5042141;28;20033;-71
2022/06/08 08:10:24;;;;;;;8.82;4.85;;;19.90;78.30;;;;;;5037583;28;20021;-70
2022/06/08 08:12:50;;;;;;;10.27;4.47;;;20.00;78.60;;;;;;5040713;28;20047;-72
2022/06/08 08:15:16;;;;;;;5.38;3.05;;;20.20;77.20;;;;;;5035938;28;20029;-71
2022/06/08 08:17:42;;;;;;;9.77;3.88;;;20.40;75.40;;;;;;5039615;28;20067;-71
2022/06/08 08:20:15;;;;;;;6.32;4.10;;;20.60;75.20;;;;;;5041557;28;21416;-72
2022/06/08 08:22:41;;;;;;;7.70;2.00;;;20.70;75.50;;;;;;5039627;28;20027;-71
2022/06/08 08:25:09;;;;;;;9.57;4.72;;;20.90;72.00;;;;;;5040510;28;20025;-72
2022/06/08 08:27:35;;;;;;;5.35;2.10;;;21.00;72.80;;;;;;5037180;28;20036;-71
2022/06/08 08:30:01;;;;;;;5.47;2.30;;;21.10;70.50;;;;;;5038779;28;20045;-71
2022/06/08 08:32:27;;;;;;;8.13;2.55;;;21.20;70.70;;;;;;5036132;28;20445;-71
2022/06/08 08:34:52;;;;;;;8.00;3.63;;;21.30;70.60;;;;;;5036717;28;20153;-71
2022/06/08 08:37:20;;;;;;;4.40;1.95;;;21.60;70.90;;;;;;5036307;28;20136;-72
2022/06/08 08:39:46;;;;;;;9.13;3.65;;;21.80;68.10;;;;;;5035162;28;20029;-73
2022/06/08 08:42:20;;;;;;;4.95;2.90;;;22.00;68.70;;;;;;5039585;28;20777;-72
2022/06/08 08:45:04;;;;;;;4.95;1.73;;;21.80;69.20;;;;;;5037721;28;20025;-72
2022/06/08 08:47:36;;;;;;;10.77;4.05;;;21.80;68.30;;;;;;5037664;28;20060;-72
2022/06/08 08:50:16;;;;;;;9.57;4.50;;;21.80;70.20;;;;;;5038036;28;20033;-72
2022/06/08 08:53:11;;;;;;;7.05;2.65;;;21.60;70.10;;;;;;5049924;28;20032;-71
2022/06/08 08:55:50;;;;;;;4.28;1.75;;;21.60;69.80;;;;;;5049901;28;20870;-72
2022/06/08 08:58:21;;;;;;;5.60;2.95;;;21.70;69.80;;;;;;5049844;28;20072;-72
2022/06/08 09:00:59;;;;;;;9.40;3.92;;;21.70;69.50;;;;;;5048640;28;20032;-71
2022/06/08 09:03:26;;;;;;;4.60;1.65;;;21.70;69.40;;;;;;5049975;28;20479;-72
2022/06/08 09:05:59;;;;;;;9.57;3.97;;;21.70;69.40;;;;;;5049637;28;20037;-71
2022/06/08 09:08:26;;;;;;;4.72;2.13;;;21.60;70.10;;;;;;5049679;28;20025;-73
2022/06/08 09:10:56;;;;;;;6.30;2.95;;;21.60;70.00;;;;;;5050078;28;20117;-72
2022/06/08 09:13:40;;;;;;;5.63;1.83;;;21.50;70.00;;;;;;5051658;28;20025;-72
2022/06/08 09:16:05;;;;;;;7.53;4.10;;;21.50;70.10;;;;;;5050807;28;20040;-71
2022/06/08 09:18:40;;;;;;;9.18;4.25;;;21.50;70.60;;;;;;5047512;28;20416;-71
2022/06/08 09:21:35;;;;;;;8.05;3.20;;;21.60;70.30;;;;;;5035724;28;20052;-70
2022/06/08 09:24:08;;;;;;;6.47;2.00;;;21.60;70.00;;;;;;5036980;28;20024;-71
2022/06/08 09:26:41;;;;;;;6.43;2.50;;;21.60;69.70;;;;;;5034304;28;20021;-69
2022/06/08 09:29:09;;;;;;;7.50;2.83;;;21.60;70.30;;;;;;5033324;28;20025;-69
2022/06/08 09:31:36;;;;;;;7.80;3.17;;;21.50;70.60;;;;;;5036046;28;20041;-69
2022/06/08 09:34:29;;;;;;;7.32;3.63;;;21.50;71.10;;;;;;5032687;28;20039;-74
2022/06/08 09:37:21;;;;;;;6.65;2.47;;;21.30;70.90;;;;;;5033179;28;20033;-71
2022/06/08 09:39:47;;;;;;;5.57;2.08;;;21.20;71.30;;;;;;5036474;28;20029;-71
2022/06/08 09:42:28;;;;;;;7.00;3.65;;;21.20;72.00;;;;;;5034566;28;20091;-71
2022/06/08 09:45:03;;;;;;;3.40;1.50;;;21.20;72.80;;;;;;5034372;28;20456;-71
2022/06/08 09:53:34;;;;;;;9.13;3.33;;;21.20;71.90;;;;;;5034744;28;20091;-72
2022/06/08 09:56:00;;;;;;;6.10;1.85;;;21.10;72.60;;;;;;5032434;28;20139;-71
2022/06/08 09:58:37;;;;;;;6.63;2.95;;;21.10;72.20;;;;;;5036596;28;20147;-71
2022/06/08 10:01:30;;;;;;;9.10;3.58;;;21.20;72.80;;;;;;5035201;28;20037;-71
2022/06/08 10:04:43;;;;;;;6.65;1.80;;;21.20;72.60;;;;;;5035606;28;20327;-72
2022/06/08 10:07:15;;;;;;;12.90;4.82;;;21.30;71.60;;;;;;4973119;28;20030;-72
2022/06/08 10:10:05;;;;;;;10.02;3.50;;;21.30;72.40;;;;;;4974463;28;20050;-70
2022/06/08 10:12:37;;;;;;;;;;;21.30;71.80;;;;;;5012014;28;20128;-72
2022/06/08 10:15:14;;;;;;;6.40;3.08;;;21.40;71.10;;;;;;5036058;28;19917;-71
2022/06/08 10:17:50;;;;;;;7.65;2.55;;;21.20;71.80;;;;;;5030403;28;20810;-72
2022/06/08 10:20:25;;;;;;;6.72;3.20;;;21.20;71.70;;;;;;5035216;28;20490;-71
2022/06/08 10:23:24;;;;;;;7.78;2.83;;;21.30;72.40;;;;;;5038214;28;20103;-69
2022/06/08 10:26:01;;;;;;;9.05;3.13;;;21.30;72.20;;;;;;5025498;28;20040;-73
2022/06/08 10:28:38;;;;;;;7.07;2.35;;;21.20;72.80;;;;;;5038984;28;20021;-73
2022/06/08 10:31:05;;;;;;;6.68;2.90;;;21.20;72.20;;;;;;5036343;28;20022;-72
2022/06/08 10:34:05;;;;;;;7.45;3.13;;;21.10;73.20;;;;;;5039855;28;20036;-72
2022/06/08 10:36:32;;;;;;;6.80;2.65;;;21.10;72.70;;;;;;5036679;28;20070;-74
2022/06/08 10:39:01;;;;;;;10.38;3.42;;;21.10;72.20;;;;;;5037818;28;20816;-73
2022/06/08 10:44:48;;;;;;;6.15;2.55;;;21.10;72.60;;;;;;5047221;28;20106;-73
2022/06/08 10:47:13;;;;;;;7.05;1.88;;;21.10;72.70;;;;;;5047378;28;20052;-72
2022/06/08 10:49:39;;;;;;;7.82;2.95;;;21.10;72.50;;;;;;5046977;28;20409;-73
2022/06/08 10:52:18;;;;;;;6.32;1.80;;;21.10;73.00;;;;;;5048299;28;20128;-72
2022/06/08 10:54:56;;;;;;;4.13;1.37;;;21.00;71.90;;;;;;5047672;28;20029;-72
2022/06/08 10:57:36;;;;;;;7.55;2.63;;;20.90;72.40;;;;;;5047923;28;20314;-72
2022/06/08 11:00:25;;;;;;;7.07;2.15;;;20.80;72.70;;;;;;5044808;28;20025;-72
2022/06/08 11:02:51;;;;;;;10.93;3.17;;;20.70;73.20;;;;;;5048037;28;20029;-72
2022/06/08 11:05:35;;;;;;;9.05;3.13;;;20.60;74.50;;;;;;5048210;28;20029;-71
2022/06/08 11:08:06;;;;;;;8.75;2.28;;;20.50;75.50;;;;;;5028172;28;20112;-72
2022/06/08 11:10:44;;;;;;;9.05;2.60;;;20.40;76.20;;;;;;5041500;28;20417;-71
2022/06/08 11:13:38;;;;;;;8.32;3.13;;;20.20;76.30;;;;;;5028339;28;20091;-72
2022/06/08 11:16:23;;;;;;;6.43;2.10;;;20.00;78.10;;;;;;5046366;28;20108;-72
2022/06/08 11:18:54;;;;;;;8.57;2.60;;;19.90;78.50;;;;;;5047966;28;20032;-73
2022/06/08 11:21:34;;;;;;;8.57;3.45;;;19.80;79.60;;;;;;5047530;28;20013;-71
2022/06/08 11:24:34;;;;;;;8.38;2.75;;;19.70;81.00;;;;;;5047779;28;20347;-72
2022/06/08 11:27:12;;;;;;;9.82;3.28;;;19.70;81.80;;;;;;5045078;28;20037;-72
2022/06/08 11:29:59;;;;;;;10.25;3.38;;;19.70;81.70;;;;;;5047767;28;20453;-72
2022/06/08 11:32:34;;;;;;;14.07;3.42;;;19.70;81.70;;;;;;5047995;28;20407;-72
2022/06/08 11:35:18;;;;;;;9.98;3.45;;;19.60;82.40;;;;;;5047353;28;20140;-72
2022/06/08 11:38:17;;;;;;;10.10;3.17;;;19.70;82.80;;;;;;5037098;28;20025;-73
2022/06/08 11:40:43;;;;;;;9.88;3.90;;;19.70;82.40;;;;;;5050602;28;20017;-71
2022/06/08 11:43:15;;;;;;;8.65;3.15;;;19.80;82.70;;;;;;5051655;28;20059;-72
2022/06/08 11:45:47;;;;;;;6.90;2.65;;;19.80;81.80;;;;;;5050666;28;20039;-71
2022/06/08 11:48:42;;;;;;;8.93;3.17;;;19.70;81.40;;;;;;5046993;28;20024;-72
2022/06/08 11:51:07;;;;;;;6.90;2.42;;;19.70;81.20;;;;;;5045202;28;20100;-72
2022/06/08 11:53:40;;;;;;;9.05;3.42;;;19.60;81.80;;;;;;5041862;28;20096;-72
2022/06/08 11:56:08;;;;;;;12.20;3.90;;;19.50;83.00;;;;;;5038287;28;20099;-72
2022/06/08 11:58:41;;;;;;;11.02;3.30;;;19.30;82.70;;;;;;5049509;28;20025;-72
2022/06/08 12:01:15;;;;;;;7.65;3.22;;;19.10;83.80;;;;;;5050101;28;20472;-71
2022/06/08 12:03:51;;;;;;;8.23;3.20;;;19.00;84.50;;;;;;5051207;28;20021;-71
2022/06/08 12:06:35;;;;;;;8.63;2.90;;;18.90;85.00;;;;;;5050889;28;20098;-72
2022/06/08 12:09:06;;;;;;;6.93;2.10;;;18.80;84.20;;;;;;5042372;28;20032;-71
2022/06/08 12:11:33;;;;;;;9.45;2.95;;;18.70;84.20;;;;;;5050646;28;20082;-71
2022/06/08 12:14:34;;;;;;;9.75;2.58;;;18.70;84.90;;;;;;5051261;28;20380;-71
2022/06/08 12:17:08;;;;;;;9.30;2.67;;;18.60;85.10;;;;;;5050766;28;20467;-73
2022/06/08 12:19:53;;;;;;;7.00;2.80;;;18.60;87.10;;;;;;5051325;28;20541;-71
2022/06/08 12:22:29;;;;;;;7.32;2.85;;;18.60;86.80;;;;;;5046962;28;20021;-72
2022/06/08 12:25:09;;;;;;;7.88;2.40;;;18.60;87.90;;;;;;5043579;28;20036;-73
2022/06/08 12:27:44;;;;;;;7.78;2.75;;;18.60;88.30;;;;;;5050313;28;20029;-73
2022/06/08 12:30:19;;;;;;;6.50;2.17;;;18.60;87.20;;;;;;5050305;28;20479;-74
2022/06/08 12:33:13;;;;;;;3.28;1.83;;;18.70;86.20;;;;;;5047257;28;20031;-72
2022/06/08 12:35:54;;;;;;;8.23;3.13;;;18.50;85.90;;;;;;5020094;28;20063;-72
2022/06/08 12:38:21;;;;;;;;;;;18.40;86.90;;;;;;5050495;28;20029;-72
2022/06/08 12:41:10;;;;;;;5.50;2.10;;;18.30;87.60;;;;;;5050300;28;19915;-72
2022/06/08 12:43:40;;;;;;;9.73;3.15;;;18.30;88.10;;;;;;5050156;28;20033;-73
2022/06/08 12:46:13;;;;;;;9.90;2.10;;;18.30;88.70;;;;;;5050334;28;20035;-72
2022/06/08 12:48:50;;;;;;;10.45;3.42;;;18.30;87.70;;;;;;5050115;28;20037;-73
2022/06/08 12:51:36;;;;;;;8.30;2.72;;;18.30;88.90;;;;;;5049805;28;20025;-72
2022/06/08 12:54:25;;;;;;;9.10;3.25;;;18.20;88.70;;;;;;5050023;28;20088;-72
2022/06/08 12:56:59;;;;;;;12.40;4.00;;;18.20;90.40;;;;;;5032431;28;20029;-72
2022/06/08 12:59:26;;;;;;;7.47;3.55;;;18.20;89.90;;;;;;5048575;28;20021;-72
2022/06/08 13:01:55;;;;;;;7.47;2.83;;;18.20;90.00;;;;;;5057137;28;20031;-72
2022/06/08 13:04:22;;;;;;;7.70;2.97;;;18.20;90.10;;;;;;5050360;28;20067;-72
2022/06/08 13:06:48;;;;;;;11.75;4.05;;;18.20;89.50;;;;;;5042532;28;20032;-72
2022/06/08 13:09:18;;;;;;;11.48;3.38;;;18.10;90.40;;;;;;5041840;28;20029;-72
2022/06/08 13:11:46;;;;;;;7.30;2.73;;;18.10;90.90;;;;;;5039169;28;20440;-73
2022/06/08 13:14:15;;;;;;;7.30;2.72;;;18.20;90.50;;;;;;5043550;28;20036;-71
2022/06/08 13:16:41;;;;;;;7.90;2.88;;;18.20;89.80;;;;;;5049900;28;20017;-72
2022/06/08 13:19:11;;;;;;;6.32;2.00;;;18.10;90.00;;;;;;5048299;28;20482;-72